Time;durP1;ratioP1;P1;durP2;ratioP2;P2;SDS_P1;SDS_P2;PMS_P1;PMS_P2;Temp;Humidity;BMP_temperature;BMP_pressure;BME280_temperature;BME280_humidity;BME280_pressure;Samples;Min_cycle;Max_cycle;Signal;HPM_P1;HPM_P2
2021/06/30 00:01:32;;;;;;;13.18;11.05;;;;;;;27.32;49.47;99331.44;5076877;28;20055;-74
2021/06/30 00:04:05;;;;;;;18.95;11.35;;;;;;;27.21;49.92;99328.56;5095040;28;20487;-74
2021/06/30 00:06:34;;;;;;;15.52;10.68;;;;;;;27.19;49.82;99326.06;5095286;28;20040;-74
2021/06/30 00:09:10;;;;;;;15.38;11.13;;;;;;;27.16;49.95;99331.97;5095249;28;20090;-73
2021/06/30 00:11:43;;;;;;;13.23;10.48;;;;;;;27.16;50.32;99326.50;5094461;28;20459;-73
2021/06/30 00:14:18;;;;;;;12.48;10.63;;;;;;;27.25;49.35;99322.44;5094962;28;20047;-75
2021/06/30 00:16:52;;;;;;;15.15;10.30;;;;;;;27.27;49.38;99322.22;5094463;28;20047;-77
2021/06/30 00:19:27;;;;;;;16.20;10.15;;;;;;;27.28;50.39;99312.94;5094787;28;20051;-75
2021/06/30 00:22:01;;;;;;;15.07;9.88;;;;;;;27.26;49.01;99321.38;5094639;28;20822;-75
2021/06/30 00:24:36;;;;;;;13.65;10.20;;;;;;;27.24;49.09;99312.56;5094748;28;20036;-75
2021/06/30 00:27:09;;;;;;;14.48;9.55;;;;;;;27.20;49.39;99319.50;5094620;28;20047;-74
2021/06/30 00:29:44;;;;;;;16.45;10.48;;;;;;;27.19;49.36;99323.31;5094463;28;20051;-75
2021/06/30 00:32:17;;;;;;;15.90;10.02;;;;;;;27.17;49.26;99333.66;5094789;28;20040;-74
2021/06/30 00:34:51;;;;;;;14.60;9.55;;;;;;;27.17;48.63;99328.19;5094033;28;20051;-75
2021/06/30 00:37:24;;;;;;;15.02;9.88;;;;;;;27.19;48.49;99341.63;5094450;28;20040;-75
2021/06/30 00:39:58;;;;;;;14.27;8.65;;;;;;;27.33;47.82;99349.53;5094243;28;20047;-74
2021/06/30 00:42:32;;;;;;;13.15;8.05;;;;;;;27.27;47.33;99349.59;5094181;28;20067;-74
2021/06/30 00:45:02;;;;;;;13.85;7.63;;;;;;;27.52;45.87;99352.34;5093833;28;20126;-74
2021/06/30 00:47:38;;;;;;;13.45;5.10;;;;;;;27.92;42.63;99345.47;5094334;28;20044;-74
2021/06/30 00:50:13;;;;;;;11.75;4.80;;;;;;;27.81;42.79;99354.44;5094141;28;20124;-74
2021/06/30 00:52:43;;;;;;;13.55;4.57;;;;;;;27.64;43.45;99380.69;5094156;28;20081;-76
2021/06/30 00:55:12;;;;;;;12.80;4.47;;;;;;;27.46;43.88;99370.50;5075970;28;20128;-71
2021/06/30 00:57:45;;;;;;;17.42;4.18;;;;;;;27.07;45.66;99383.41;5093671;28;20440;-72
2021/06/30 01:00:20;;;;;;;19.38;4.18;;;;;;;26.68;46.99;99389.91;5093991;28;20048;-72
2021/06/30 01:02:53;;;;;;;20.83;4.03;;;;;;;26.47;47.39;99398.41;5075604;28;20467;-72
2021/06/30 01:05:29;;;;;;;20.73;4.00;;;;;;;26.31;48.11;99409.78;5094218;28;20132;-72
2021/06/30 01:08:06;;;;;;;22.98;3.80;;;;;;;26.15;48.44;99417.41;5075329;28;20082;-72
2021/06/30 01:10:41;;;;;;;21.40;4.03;;;;;;;26.08;48.87;99416.56;5093611;28;20052;-71
2021/06/30 01:13:16;;;;;;;19.90;4.05;;;;;;;25.94;49.49;99420.34;5094166;28;20044;-72
2021/06/30 01:15:55;;;;;;;15.70;3.40;;;;;;;25.74;49.85;99431.28;5093616;28;20040;-73
2021/06/30 01:18:30;;;;;;;17.45;3.35;;;;;;;25.53;50.17;99421.38;5093803;28;20129;-72
2021/06/30 01:21:07;;;;;;;29.23;3.50;;;;;;;25.42;50.77;99408.34;5093378;28;20044;-72
2021/06/30 01:23:43;;;;;;;19.83;3.45;;;;;;;25.31;50.94;99408.97;5093618;28;20044;-72
2021/06/30 01:26:16;;;;;;;18.23;3.10;;;;;;;25.05;51.42;99418.78;5093801;28;20051;-72
2021/06/30 01:28:52;;;;;;;14.95;3.00;;;;;;;25.00;51.65;99424.00;5093059;28;20125;-73
2021/06/30 01:31:20;;;;;;;16.23;2.90;;;;;;;24.86;51.79;99405.03;5093292;28;20036;-73
2021/06/30 01:33:48;;;;;;;14.82;2.97;;;;;;;24.78;51.94;99414.25;5092929;28;20551;-74
2021/06/30 01:36:24;;;;;;;14.73;3.05;;;;;;;24.73;52.12;99412.16;5093715;28;20062;-70
2021/06/30 01:38:59;;;;;;;10.75;3.03;;;;;;;24.68;52.32;99419.25;5093009;28;20044;-71
2021/06/30 01:41:27;;;;;;;15.70;3.40;;;;;;;24.60;52.58;99424.84;5093223;28;20040;-74
2021/06/30 01:44:00;;;;;;;10.10;2.58;;;;;;;24.59;52.56;99423.19;5093018;28;20409;-74
2021/06/30 01:46:34;;;;;;;14.88;3.15;;;;;;;24.57;52.66;99428.00;5093475;28;20089;-73
2021/06/30 01:49:09;;;;;;;11.38;2.58;;;;;;;24.33;53.12;99416.56;5093051;28;20044;-72
2021/06/30 01:51:38;;;;;;;10.43;2.65;;;;;;;24.35;53.13;99414.47;5093085;28;20047;-72
2021/06/30 01:54:15;;;;;;;14.30;3.05;;;;;;;24.27;53.13;99426.34;5092716;28;20040;-71
2021/06/30 01:56:49;;;;;;;16.83;3.88;;;;;;;24.13;53.60;99419.16;5092654;28;20043;-71
2021/06/30 01:59:22;;;;;;;11.57;3.20;;;;;;;23.94;54.24;99417.97;5093180;28;20131;-72
2021/06/30 02:01:55;;;;;;;13.13;2.50;;;;;;;23.68;55.04;99425.94;5092719;28;20044;-70
2021/06/30 02:04:27;;;;;;;13.07;2.40;;;;;;;23.41;55.44;99422.09;5093028;28;20074;-70
2021/06/30 02:07:00;;;;;;;16.35;2.50;;;;;;;23.27;56.14;99429.28;5092661;28;20048;-71
2021/06/30 02:09:35;;;;;;;14.13;2.30;;;;;;;23.19;56.04;99437.56;5093145;28;20048;-72
2021/06/30 02:12:09;;;;;;;9.15;2.47;;;;;;;23.07;56.37;99442.69;5092776;28;20051;-72
2021/06/30 02:14:43;;;;;;;8.95;2.50;;;;;;;23.10;56.51;99452.31;5092990;28;20048;-72
2021/06/30 02:17:18;;;;;;;10.60;2.53;;;;;;;23.06;56.64;99451.00;5092925;28;20043;-71
2021/06/30 02:19:54;;;;;;;19.35;3.22;;;;;;;22.99;56.55;99452.84;5092335;28;20044;-70
2021/06/30 02:22:30;;;;;;;10.80;3.00;;;;;;;22.92;57.19;99454.63;5093050;28;20040;-71
2021/06/30 02:25:05;;;;;;;7.95;2.67;;;;;;;22.85;57.11;99455.38;5092565;28;20509;-71
2021/06/30 02:27:39;;;;;;;6.82;2.50;;;;;;;22.83;57.21;99468.28;5092930;28;20465;-70
2021/06/30 02:30:10;;;;;;;10.73;2.40;;;;;;;22.87;56.90;99462.50;5092394;28;20071;-70
2021/06/30 02:32:45;;;;;;;6.60;2.35;;;;;;;22.98;56.62;99464.75;5092703;28;20044;-70
2021/06/30 02:35:15;;;;;;;11.25;2.47;;;;;;;22.87;56.96;99465.22;5092818;28;20070;-71
2021/06/30 02:37:51;;;;;;;10.07;2.28;;;;;;;22.75;57.14;99460.25;5092619;28;20044;-73
2021/06/30 02:40:22;;;;;;;8.25;2.45;;;;;;;22.75;57.20;99459.41;5092519;28;20123;-74
2021/06/30 02:42:56;;;;;;;9.07;2.28;;;;;;;22.74;57.01;99469.44;5092500;28;20037;-73
2021/06/30 02:45:30;;;;;;;9.73;2.33;;;;;;;22.66;57.13;99463.25;5074451;28;20556;-71
2021/06/30 02:48:03;;;;;;;5.85;2.42;;;;;;;22.79;56.74;99458.84;5092366;28;20068;-70
2021/06/30 02:50:37;;;;;;;10.27;2.10;;;;;;;22.59;57.44;99460.47;5092794;28;20048;-71
2021/06/30 02:53:11;;;;;;;8.18;2.28;;;;;;;22.54;57.45;99471.03;5092415;28;20552;-71
2021/06/30 02:55:46;;;;;;;6.78;2.10;;;;;;;22.45;57.71;99469.44;5092667;28;20392;-70
2021/06/30 02:58:19;;;;;;;8.43;2.38;;;;;;;22.45;57.56;99459.41;5074559;28;20044;-70
2021/06/30 03:00:52;;;;;;;7.80;2.30;;;;;;;22.47;57.59;99472.81;5092189;28;20040;-70
2021/06/30 03:03:26;;;;;;;8.30;1.98;;;;;;;22.44;57.52;99462.34;5092389;28;20047;-71
2021/06/30 03:05:59;;;;;;;11.88;2.38;;;;;;;22.46;57.47;99461.09;5092335;28;20431;-70
2021/06/30 03:08:32;;;;;;;6.03;1.92;;;;;;;22.35;57.30;99458.03;5077735;28;20048;-69
2021/06/30 03:11:07;;;;;;;7.45;2.00;;;;;;;22.28;57.98;99468.78;5096009;28;20056;-70
2021/06/30 03:13:42;;;;;;;11.77;2.28;;;;;;;22.27;57.89;99456.22;5096049;28;20051;-70
2021/06/30 03:16:18;;;;;;;5.03;1.80;;;;;;;22.30;57.87;99452.31;5096338;28;20136;-70
2021/06/30 03:18:51;;;;;;;4.80;1.67;;;;;;;22.29;57.97;99454.16;5096007;28;20098;-76
2021/06/30 03:21:24;;;;;;;;;;;;;;;22.33;57.64;99449.22;5096463;28;20493;-71
2021/06/30 03:23:57;;;;;;;6.97;1.77;;;;;;;22.28;57.85;99450.59;5095675;28;20331;-72
2021/06/30 03:26:32;;;;;;;5.68;1.85;;;;;;;22.24;57.84;99457.47;5095748;28;20044;-71
2021/06/30 03:29:02;;;;;;;7.43;2.08;;;;;;;22.26;58.04;99458.09;5095484;28;20050;-71
2021/06/30 03:31:36;;;;;;;7.90;2.05;;;;;;;22.23;58.09;99466.63;5077785;28;20105;-70
2021/06/30 03:34:09;;;;;;;6.25;1.90;;;;;;;22.35;57.66;99466.16;5095438;28;20044;-70
2021/06/30 03:36:43;;;;;;;6.05;1.83;;;;;;;22.44;57.22;99467.75;5095396;28;20126;-71
2021/06/30 03:39:18;;;;;;;6.97;2.45;;;;;;;22.66;56.78;99471.41;5095002;28;20044;-72
2021/06/30 03:41:53;;;;;;;6.10;1.85;;;;;;;23.09;55.36;99477.84;5095565;28;20081;-70
2021/06/30 03:44:29;;;;;;;8.18;2.10;;;;;;;23.34;54.34;99481.03;5095593;28;20500;-72
2021/06/30 03:47:02;;;;;;;9.10;2.00;;;;;;;23.95;52.73;99484.19;5095081;28;20071;-71
2021/06/30 03:49:38;;;;;;;5.40;1.63;;;;;;;24.10;52.09;99490.34;5095693;28;20131;-70
2021/06/30 03:52:07;;;;;;;4.03;1.90;;;;;;;24.41;51.33;99476.34;5095198;28;20044;-71
2021/06/30 03:54:40;;;;;;;3.58;1.65;;;;;;;24.98;49.47;99479.78;5095400;28;20069;-70
2021/06/30 03:57:15;;;;;;;7.32;1.73;;;;;;;24.98;49.36;99469.72;5094901;28;20451;-70
2021/06/30 03:59:47;;;;;;;4.65;1.90;;;;;;;25.44;48.38;99474.50;5094991;28;20127;-71
2021/06/30 04:02:20;;;;;;;3.35;1.58;;;;;;;25.30;48.59;99472.81;5095416;28;20040;-73
2021/06/30 04:04:54;;;;;;;6.75;2.15;;;;;;;25.51;47.87;99475.34;5094607;28;20547;-77
2021/06/30 04:07:27;;;;;;;5.60;1.50;;;;;;;25.76;47.47;99488.44;5095021;28;20040;-73
2021/06/30 04:09:59;;;;;;;6.00;2.30;;;;;;;26.20;46.42;99479.59;5094262;28;20047;-73
2021/06/30 04:12:34;;;;;;;6.85;1.70;;;;;;;26.04;46.38;99486.34;5095025;28;20075;-73
2021/06/30 04:15:08;;;;;;;3.67;1.52;;;;;;;25.92;46.92;99477.94;5094796;28;20040;-73
2021/06/30 04:17:41;;;;;;;4.10;1.63;;;;;;;25.49;47.98;99487.53;5094388;28;20043;-73
2021/06/30 04:20:15;;;;;;;3.67;1.65;;;;;;;26.14;46.60;99478.53;5076391;28;20044;-73
2021/06/30 04:22:48;;;;;;;8.10;1.95;;;;;;;26.18;45.91;99465.31;5094754;28;20048;-73
2021/06/30 04:25:23;;;;;;;7.80;2.20;;;;;;;26.52;45.90;99462.31;5094910;28;20074;-73
2021/06/30 04:27:58;;;;;;;4.03;1.75;;;;;;;26.71;44.65;99457.00;5094255;28;20044;-74
2021/06/30 04:30:31;;;;;;;4.15;1.73;;;;;;;26.88;44.43;99460.94;5094480;28;20506;-71
2021/06/30 04:33:00;;;;;;;5.72;1.80;;;;;;;26.82;44.56;99462.63;5094042;28;20070;-70
2021/06/30 04:35:36;;;;;;;7.93;1.92;;;;;;;27.14;44.07;99470.97;5094623;28;20044;-70
2021/06/30 04:38:09;;;;;;;6.07;1.83;;;;;;;26.92;44.37;99464.06;5075808;28;20084;-70
2021/06/30 04:40:42;;;;;;;5.35;1.60;;;;;;;27.35;43.82;99462.41;5094356;28;20424;-71
2021/06/30 04:43:16;;;;;;;4.22;1.88;;;;;;;28.06;41.99;99455.78;5093938;28;20076;-72
2021/06/30 04:45:49;;;;;;;6.38;1.83;;;;;;;28.78;40.10;99450.63;5094468;28;20044;-73
2021/06/30 04:48:23;;;;;;;9.45;1.90;;;;;;;28.49;40.82;99453.06;5094275;28;20044;-73
2021/06/30 04:50:57;;;;;;;4.50;2.10;;;;;;;28.16;41.80;99463.50;5094086;28;20047;-75
2021/06/30 04:53:25;;;;;;;4.63;1.60;;;;;;;28.60;40.93;99443.25;5093915;28;20456;-71
2021/06/30 04:55:58;;;;;;;5.10;1.60;;;;;;;28.91;40.00;99450.50;5093904;28;20067;-73
2021/06/30 04:58:33;;;;;;;6.82;1.80;;;;;;;29.19;39.78;99457.31;5094133;28;20040;-73
2021/06/30 05:01:06;;;;;;;5.78;1.73;;;;;;;29.42;39.15;99449.16;5093470;28;20114;-73
2021/06/30 05:03:37;;;;;;;5.47;2.00;;;;;;;29.70;38.53;99459.53;5093843;28;20043;-74
2021/06/30 05:06:10;;;;;;;8.13;1.83;;;;;;;29.33;39.21;99451.38;5074952;28;20120;-77
2021/06/30 05:08:43;;;;;;;5.93;1.73;;;;;;;28.94;39.90;99438.22;5093335;28;20066;-76
2021/06/30 05:11:16;;;;;;;5.75;1.90;;;;;;;29.45;38.76;99450.59;5093406;28;20063;-74
2021/06/30 05:13:51;;;;;;;6.60;2.00;;;;;;;30.49;37.23;99446.31;5093635;28;20040;-76
2021/06/30 05:16:24;;;;;;;4.18;1.80;;;;;;;30.60;36.81;99462.00;5093519;28;20056;-77
2021/06/30 05:18:58;;;;;;;8.48;2.08;;;;;;;30.09;37.68;99452.56;5093351;28;20048;-75
2021/06/30 05:21:31;;;;;;;5.55;1.60;;;;;;;30.31;37.52;99451.97;5093732;28;20085;-73
2021/06/30 05:24:05;;;;;;;5.75;1.58;;;;;;;30.73;36.62;99445.25;5093228;28;20067;-73
2021/06/30 05:26:38;;;;;;;3.08;1.48;;;;;;;30.35;36.81;99445.75;5093524;28;20044;-76
2021/06/30 05:29:13;;;;;;;5.95;2.00;;;;;;;30.04;38.12;99449.66;5092394;28;20063;-72
2021/06/30 05:31:49;;;;;;;6.47;1.83;;;;;;;29.69;38.70;99457.03;5093600;28;20071;-73
2021/06/30 05:34:22;;;;;;;4.13;1.80;;;;;;;30.09;37.57;99463.56;5074995;28;20471;-73
2021/06/30 05:36:58;;;;;;;4.95;2.00;;;;;;;30.18;37.95;99461.28;5092989;28;20117;-74
2021/06/30 05:39:31;;;;;;;4.88;1.80;;;;;;;30.61;36.93;99455.41;5093093;28;20040;-77
2021/06/30 05:42:07;;;;;;;5.40;1.73;;;;;;;31.06;36.19;99458.28;5093122;28;20093;-76
2021/06/30 05:44:42;;;;;;;5.28;2.10;;;;;;;31.19;35.74;99456.34;5093162;28;20471;-81
2021/06/30 05:47:11;;;;;;;6.25;2.05;;;;;;;31.26;35.73;99463.41;5093129;28;20097;-82
2021/06/30 05:49:44;;;;;;;3.63;1.67;;;;;;;30.76;36.56;99464.00;5093114;28;20127;-80
2021/06/30 05:52:18;;;;;;;6.80;1.80;;;;;;;31.09;36.16;99458.91;5092920;28;20047;-80
2021/06/30 05:54:51;;;;;;;8.02;1.98;;;;;;;31.33;35.60;99466.84;5093106;28;20044;-78
2021/06/30 05:57:25;;;;;;;5.55;1.88;;;;;;;31.05;35.61;99456.63;5092952;28;20093;-77
2021/06/30 05:59:57;;;;;;;6.32;1.77;;;;;;;30.88;36.13;99471.41;5074888;28;20130;-82
2021/06/30 06:02:30;;;;;;;4.30;1.88;;;;;;;30.49;37.30;99474.66;5092826;28;20044;-74
2021/06/30 06:05:04;;;;;;;4.30;1.60;;;;;;;30.02;37.81;99484.81;5092953;28;20040;-75
2021/06/30 06:07:33;;;;;;;7.38;2.05;;;;;;;30.30;37.38;99478.63;5093145;28;20097;-74
2021/06/30 06:10:01;;;;;;;5.95;2.05;;;;;;;30.19;37.80;99474.78;5092662;28;20534;-79
2021/06/30 06:12:38;;;;;;;5.80;1.70;;;;;;;29.79;38.00;99484.75;5092935;28;20055;-75
2021/06/30 06:15:10;;;;;;;6.85;2.10;;;;;;;30.35;37.27;99484.25;5092471;28;20047;-76
2021/06/30 06:17:43;;;;;;;7.15;1.88;;;;;;;30.78;36.50;99500.38;5092818;28;20068;-76
2021/06/30 06:20:16;;;;;;;5.00;1.83;;;;;;;31.14;35.71;99495.63;5092413;28;20440;-73
2021/06/30 06:22:49;;;;;;;6.25;1.88;;;;;;;31.05;36.26;99499.84;5092865;28;20383;-74
2021/06/30 06:25:23;;;;;;;6.03;1.60;;;;;;;31.07;35.82;99511.44;5092379;28;20125;-75
2021/06/30 06:27:56;;;;;;;7.55;1.70;;;;;;;30.88;35.77;99498.94;5092969;28;20045;-73
2021/06/30 06:30:31;;;;;;;5.10;1.70;;;;;;;30.30;37.15;99519.03;5092840;28;20044;-75
2021/06/30 06:33:04;;;;;;;5.13;1.63;;;;;;;30.81;36.64;99510.09;5092560;28;20048;-71
2021/06/30 06:35:37;;;;;;;6.90;1.98;;;;;;;30.81;36.06;99501.00;5074290;28;20067;-73
2021/06/30 06:38:12;;;;;;;7.35;1.90;;;;;;;30.71;36.12;99518.97;5092316;28;20378;-73
2021/06/30 06:40:45;;;;;;;5.13;1.70;;;;;;;31.10;35.59;99519.25;5093361;28;20089;-73
2021/06/30 06:43:18;;;;;;;5.00;1.73;;;;;;;31.12;35.30;99514.31;5096377;28;20452;-73
2021/06/30 06:45:53;;;;;;;5.47;1.50;;;;;;;30.97;35.84;99530.50;5096691;28;20064;-73
2021/06/30 06:48:27;;;;;;;6.40;1.88;;;;;;;30.72;36.29;99531.66;5077937;28;20445;-74
2021/06/30 06:51:00;;;;;;;4.43;1.60;;;;;;;30.79;35.89;99520.53;5096482;28;20090;-73
2021/06/30 06:53:33;;;;;;;6.78;1.52;;;;;;;30.72;35.94;99528.06;5096569;28;20036;-73
2021/06/30 06:56:11;;;;;;;6.15;1.70;;;;;;;30.46;36.80;99518.34;5077905;28;20048;-74
2021/06/30 06:58:44;;;;;;;8.25;1.42;;;;;;;30.20;36.25;99534.22;5096341;28;20044;-74
2021/06/30 07:01:19;;;;;;;3.22;1.63;;;;;;;30.29;36.52;99522.88;5095841;28;20040;-74
2021/06/30 07:03:53;;;;;;;4.93;1.80;;;;;;;30.10;37.35;99520.22;5096376;28;20048;-73
2021/06/30 07:06:26;;;;;;;5.65;1.80;;;;;;;29.43;38.65;99524.97;5095960;28;20047;-74
2021/06/30 07:08:59;;;;;;;4.60;1.67;;;;;;;29.03;40.17;99539.22;5096180;28;20040;-73
2021/06/30 07:11:33;;;;;;;4.32;1.50;;;;;;;29.10;39.73;99525.44;5096462;28;20082;-73
2021/06/30 07:14:03;;;;;;;6.57;1.70;;;;;;;29.08;39.63;99536.66;5096145;28;20040;-74
2021/06/30 07:16:38;;;;;;;8.60;1.77;;;;;;;28.90;39.88;99535.81;5096141;28;20044;-73
2021/06/30 07:19:11;;;;;;;4.63;1.50;;;;;;;29.10;39.87;99532.84;5096052;28;20115;-74
2021/06/30 07:21:44;;;;;;;5.22;1.50;;;;;;;28.84;40.76;99537.53;5095799;28;20055;-73
2021/06/30 07:24:18;;;;;;;5.38;1.70;;;;;;;28.30;41.71;99530.06;5095785;28;20109;-74
2021/06/30 07:26:52;;;;;;;6.70;1.60;;;;;;;27.86;42.35;99510.78;5095788;28;20044;-73
2021/06/30 07:29:25;;;;;;;3.38;1.50;;;;;;;27.82;42.11;99522.41;5095496;28;20062;-74
2021/06/30 07:32:00;;;;;;;5.55;1.60;;;;;;;28.16;41.76;99523.81;5095714;28;20550;-73
2021/06/30 07:34:33;;;;;;;6.93;1.80;;;;;;;27.99;42.61;99529.03;5095826;28;20047;-74
2021/06/30 07:37:07;;;;;;;5.38;1.80;;;;;;;28.33;41.31;99530.44;5095501;28;20050;-76
2021/06/30 07:39:40;;;;;;;4.22;1.63;;;;;;;28.29;41.18;99539.38;5095590;28;20036;-73
2021/06/30 07:42:14;;;;;;;4.65;1.70;;;;;;;28.18;42.61;99541.75;5095222;28;20044;-73
2021/06/30 07:44:49;;;;;;;5.53;1.90;;;;;;;28.19;42.13;99539.84;5095433;28;20040;-74
2021/06/30 07:47:19;;;;;;;6.40;1.70;;;;;;;27.91;43.10;99532.88;5077297;28;20134;-73
2021/06/30 07:49:47;;;;;;;6.05;1.50;;;;;;;28.16;41.89;99541.09;5077300;28;20124;-73
2021/06/30 07:52:16;;;;;;;7.22;2.13;;;;;;;28.29;42.46;99539.38;5094414;28;20445;-74
2021/06/30 07:54:44;;;;;;;5.82;1.60;;;;;;;28.40;41.51;99544.09;5095254;28;20050;-73
2021/06/30 07:57:13;;;;;;;6.95;1.60;;;;;;;28.13;41.64;99540.72;5094909;28;20048;-74
2021/06/30 07:59:43;;;;;;;5.15;1.50;;;;;;;28.03;41.51;99543.13;5095521;28;20040;-74
2021/06/30 08:02:11;;;;;;;5.75;1.40;;;;;;;27.98;41.77;99543.78;5094848;28;20546;-74
2021/06/30 08:04:41;;;;;;;5.13;1.40;;;;;;;27.79;41.82;99545.59;5095290;28;20036;-73
2021/06/30 08:07:10;;;;;;;4.35;1.40;;;;;;;27.52;42.07;99538.59;5094950;28;20051;-74
2021/06/30 08:09:38;;;;;;;2.60;1.30;;;;;;;27.74;42.09;99545.44;5094774;28;20045;-74
2021/06/30 08:12:08;;;;;;;6.78;1.58;;;;;;;27.67;41.55;99550.09;5076861;28;20086;-73
2021/06/30 08:14:36;;;;;;;4.88;1.30;;;;;;;27.52;41.69;99549.53;5095330;28;20210;-73
2021/06/30 08:17:05;;;;;;;4.35;1.60;;;;;;;27.51;42.70;99542.38;5094769;28;20036;-74
2021/06/30 08:19:33;;;;;;;3.70;1.42;;;;;;;27.82;41.19;99539.69;5094366;28;20040;-73
2021/06/30 08:22:03;;;;;;;3.65;1.40;;;;;;;28.01;41.11;99534.28;5094691;28;20044;-74
2021/06/30 08:24:32;;;;;;;6.55;1.65;;;;;;;28.35;40.40;99547.50;5094688;28;20120;-72
2021/06/30 08:27:00;;;;;;;5.18;1.40;;;;;;;28.51;39.45;99540.63;5095031;28;20044;-73
2021/06/30 08:29:28;;;;;;;4.18;1.20;;;;;;;28.19;39.26;99557.13;5094316;28;20044;-73
2021/06/30 08:31:58;;;;;;;3.58;1.30;;;;;;;28.48;39.32;99552.91;5094577;28;20080;-73
2021/06/30 08:34:27;;;;;;;5.20;1.27;;;;;;;28.34;39.58;99548.56;5094183;28;20048;-73
2021/06/30 08:36:59;;;;;;;4.28;1.40;;;;;;;28.58;39.53;99554.28;5094245;28;20051;-73
2021/06/30 08:39:29;;;;;;;7.50;1.80;;;;;;;28.52;39.42;99550.53;5094145;28;20123;-73
2021/06/30 08:41:58;;;;;;;8.23;1.42;;;;;;;28.37;39.59;99552.75;5094539;28;20406;-73
2021/06/30 08:44:27;;;;;;;6.72;1.42;;;;;;;28.42;39.49;99556.53;5094225;28;20059;-73
2021/06/30 08:46:57;;;;;;;4.57;1.38;;;;;;;28.72;39.60;99553.06;5094380;28;20040;-73
2021/06/30 08:49:28;;;;;;;3.70;1.23;;;;;;;29.15;38.57;99555.78;5094019;28;20040;-75
2021/06/30 08:51:57;;;;;;;3.70;1.27;;;;;;;28.79;38.79;99567.56;5076416;28;20044;-74
2021/06/30 08:54:27;;;;;;;4.97;1.20;;;;;;;28.64;37.75;99553.34;5094154;28;20048;-75
2021/06/30 08:56:57;;;;;;;3.25;1.52;;;;;;;28.38;37.39;99557.22;5094215;28;20058;-74
2021/06/30 08:59:27;;;;;;;4.70;1.30;;;;;;;28.55;38.07;99554.72;5093836;28;20097;-73
2021/06/30 09:01:55;;;;;;;4.15;1.23;;;;;;;28.15;39.11;99561.34;5076045;28;20056;-74
2021/06/30 09:04:23;;;;;;;6.20;1.75;;;;;;;28.11;39.53;99553.81;5093850;28;20504;-74
2021/06/30 09:06:52;;;;;;;2.55;1.15;;;;;;;28.29;39.36;99566.78;5094061;28;20044;-74
2021/06/30 09:09:21;;;;;;;3.30;1.10;;;;;;;28.52;38.79;99565.06;5093777;28;20044;-73
2021/06/30 09:11:55;;;;;;;4.00;1.45;;;;;;;28.70;38.29;99564.28;5093750;28;20105;-74
2021/06/30 09:14:31;;;;;;;3.53;1.00;;;;;;;28.97;37.38;99556.63;5093876;28;20048;-73
2021/06/30 09:17:21;;;;;;;2.90;1.25;;;;;;;29.07;37.18;99561.59;5094082;28;20036;-73
2021/06/30 09:20:03;;;;;;;4.93;1.23;;;;;;;28.87;38.18;99556.28;5093849;28;20040;-72
2021/06/30 09:22:41;;;;;;;5.45;1.52;;;;;;;28.85;38.61;99566.63;5093372;28;20040;-73
2021/06/30 09:25:30;;;;;;;5.35;1.30;;;;;;;28.71;37.93;99565.94;5093401;28;20067;-73
2021/06/30 09:27:59;;;;;;;5.10;1.40;;;;;;;29.19;37.54;99553.41;5075553;28;20101;-73
2021/06/30 09:30:28;;;;;;;2.95;1.20;;;;;;;29.33;37.47;99563.16;5093245;28;20048;-73
2021/06/30 09:33:02;;;;;;;3.53;1.25;;;;;;;29.10;37.72;99560.28;5093440;28;20548;-73
2021/06/30 09:35:34;;;;;;;4.63;1.20;;;;;;;29.12;37.49;99550.75;5093206;28;20046;-73
2021/06/30 09:38:37;;;;;;;4.97;1.20;;;;;;;28.91;37.94;99553.97;5093577;28;20478;-72
2021/06/30 09:41:06;;;;;;;2.00;1.10;;;;;;;29.09;37.10;99556.72;5088577;28;20060;-72
2021/06/30 09:43:35;;;;;;;4.90;1.30;;;;;;;29.06;36.82;99563.50;5092872;28;20046;-72
2021/06/30 09:46:18;;;;;;;6.15;1.20;;;;;;;29.15;37.06;99555.78;5093176;28;20047;-73
2021/06/30 09:48:55;;;;;;;2.28;1.10;;;;;;;29.57;37.13;99545.75;5093547;28;20044;-73
2021/06/30 09:51:24;;;;;;;6.32;1.30;;;;;;;29.51;37.42;99563.16;5093016;28;20423;-74
2021/06/30 09:53:53;;;;;;;3.45;1.10;;;;;;;29.33;36.60;99574.13;5093229;28;20044;-72
2021/06/30 09:56:35;;;;;;;5.45;1.30;;;;;;;29.31;37.00;99579.88;5074729;28;20055;-75
2021/06/30 09:59:35;;;;;;;5.10;1.30;;;;;;;29.33;36.21;99564.00;5093310;28;20054;-73
2021/06/30 10:02:07;;;;;;;4.90;1.20;;;;;;;29.48;35.89;99566.38;5048370;28;20048;-73
2021/06/30 10:04:37;;;;;;;3.78;1.23;;;;;;;29.84;34.05;99564.63;5092827;28;20044;-73
2021/06/30 10:07:10;;;;;;;6.20;1.30;;;;;;;29.89;34.62;99559.25;5092969;28;20065;-73
2021/06/30 10:09:59;;;;;;;5.13;1.25;;;;;;;29.58;35.41;99560.34;5093107;28;20094;-73
2021/06/30 10:12:29;;;;;;;3.63;1.17;;;;;;;29.29;36.82;99557.28;5092623;28;20074;-73
2021/06/30 10:14:59;;;;;;;3.70;1.17;;;;;;;29.02;37.58;99545.78;5092814;28;20432;-73
2021/06/30 10:17:30;;;;;;;2.22;1.17;;;;;;;29.03;37.44;99532.91;5092424;28;20048;-73
2021/06/30 10:20:01;;;;;;;4.10;1.00;;;;;;;29.17;36.86;99542.66;5092864;28;20036;-73
2021/06/30 10:22:31;;;;;;;4.85;0.93;;;;;;;29.27;36.56;99542.13;5092593;28;20056;-73
2021/06/30 10:25:02;;;;;;;2.20;0.90;;;;;;;29.51;36.19;99541.19;5092541;28;20044;-74
2021/06/30 10:27:30;;;;;;;3.30;1.00;;;;;;;29.45;35.29;99538.50;5092428;28;20173;-73
2021/06/30 10:30:00;;;;;;;3.05;0.90;;;;;;;29.51;35.76;99535.69;5092953;28;20047;-73
2021/06/30 10:32:31;;;;;;;5.93;1.30;;;;;;;29.62;35.58;99540.38;5092845;28;20036;-73
2021/06/30 10:35:04;;;;;;;5.82;1.90;;;;;;;29.55;35.45;99534.16;5093013;28;20040;-74
2021/06/30 10:37:36;;;;;;;2.30;1.00;;;;;;;29.72;35.52;99525.25;5092684;28;20047;-74
2021/06/30 10:40:08;;;;;;;2.75;0.93;;;;;;;29.77;35.34;99530.88;5093038;28;20106;-74
2021/06/30 10:42:40;;;;;;;4.03;1.30;;;;;;;29.62;35.82;99532.13;5092500;28;20047;-74
2021/06/30 10:45:20;;;;;;;5.03;1.25;;;;;;;29.81;34.68;99527.41;5092703;28;20497;-74
2021/06/30 10:48:01;;;;;;;3.63;0.93;;;;;;;29.82;35.56;99522.75;5092558;28;20051;-74
2021/06/30 10:50:35;;;;;;;3.22;1.42;;;;;;;29.93;35.26;99527.47;5074792;28;20105;-72
2021/06/30 10:53:36;;;;;;;3.03;1.08;;;;;;;29.65;35.50;99550.09;5092540;28;20048;-74
2021/06/30 10:56:09;;;;;;;2.78;0.98;;;;;;;29.12;36.02;99536.19;5088539;28;20079;-74
2021/06/30 10:58:39;;;;;;;3.83;1.10;;;;;;;29.34;36.04;99537.41;5092323;28;20051;-74
2021/06/30 11:01:13;;;;;;;2.65;1.13;;;;;;;29.29;35.98;99539.97;5092486;28;20067;-74
2021/06/30 11:03:54;;;;;;;4.30;1.10;;;;;;;29.61;35.84;99533.22;5091983;28;20040;-73
2021/06/30 11:06:28;;;;;;;4.65;1.20;;;;;;;29.72;35.70;99536.22;5092162;28;20124;-73
2021/06/30 11:08:59;;;;;;;2.17;1.10;;;;;;;29.64;35.55;99526.44;5092355;28;20040;-73
2021/06/30 11:11:55;;;;;;;4.43;1.25;;;;;;;29.74;35.46;99532.22;5091935;28;20502;-73
2021/06/30 11:14:42;;;;;;;5.10;1.30;;;;;;;29.70;34.75;99530.13;5074229;28;20070;-73
2021/06/30 11:17:11;;;;;;;3.63;1.08;;;;;;;30.03;34.29;99516.72;5092016;28;20044;-73
2021/06/30 11:19:45;;;;;;;4.13;1.20;;;;;;;30.39;33.92;99517.63;5092203;28;20760;-74
2021/06/30 11:22:28;;;;;;;3.83;1.10;;;;;;;30.68;33.79;99532.34;5092169;28;20548;-73
2021/06/30 11:25:00;;;;;;;3.35;1.05;;;;;;;30.59;33.82;99523.59;5092346;28;20051;-75
2021/06/30 11:27:44;;;;;;;4.20;1.00;;;;;;;30.32;32.94;99525.16;5092137;28;20071;-75
2021/06/30 11:30:28;;;;;;;2.67;1.05;;;;;;;30.06;33.48;99519.00;5095954;28;20071;-74
2021/06/30 11:32:57;;;;;;;3.30;1.27;;;;;;;30.32;33.17;99516.91;5095806;28;20044;-73
2021/06/30 11:35:34;;;;;;;5.70;1.30;;;;;;;30.31;33.97;99526.25;5095553;28;20085;-74
2021/06/30 11:38:11;;;;;;;2.55;1.10;;;;;;;30.68;32.92;99515.84;5077627;28;20131;-74
2021/06/30 11:40:50;;;;;;;4.32;1.13;;;;;;;30.82;32.06;99513.69;5095291;28;20421;-73
2021/06/30 11:43:24;;;;;;;5.47;1.30;;;;;;;30.78;32.55;99510.56;5077671;28;20054;-74
2021/06/30 11:45:55;;;;;;;8.25;1.50;;;;;;;30.50;32.90;99525.06;5095378;28;20044;-74
2021/06/30 11:48:25;;;;;;;4.18;1.33;;;;;;;30.62;32.92;99516.78;5095413;28;20040;-75
2021/06/30 11:50:57;;;;;;;4.65;1.33;;;;;;;30.63;32.23;99527.56;5095511;28;20562;-73
2021/06/30 11:53:40;;;;;;;4.63;1.33;;;;;;;30.20;32.57;99512.22;5095427;28;20162;-73
2021/06/30 11:56:11;;;;;;;5.25;1.40;;;;;;;30.42;32.43;99511.66;5095340;28;20047;-73
2021/06/30 11:58:49;;;;;;;2.83;1.20;;;;;;;30.53;32.52;99497.06;5094993;28;20101;-75
2021/06/30 12:01:25;;;;;;;3.88;1.40;;;;;;;30.49;32.78;99496.69;5095175;28;20402;-73